N474KC SCEL-SCSE
Flight info
| Callsign | N474KC |
|---|---|
| Flight time | N/A |
| Altitude | 24000 |
| Route | DONTI5B/17R N0274F240DONTI Q802 KUGAP KUGAP5 |
| Aircraft | PC12/L-SDFGRWY/S |
Departure
| Time | 2026-05-03 22:24 |
|---|---|
| Airport | Comodoro Arturo Merino Benítez International Airport (SCEL) |
Arrival
| Time | N/A |
|---|---|
| Airport | La Florida Airport (SCSE) |
| Time | Latitude | Longitude | Altitude | Speed | Heading |
|---|---|---|---|---|---|
| 2026-05-03 22:23 | -33.46797 | -70.92914 | 7654 ft | 178 kts | 267° |
| 2026-05-03 22:24 | -33.46916 | -70.94410 | 8022 ft | 178 kts | 267° |
| 2026-05-03 22:24 | -33.47032 | -70.95858 | 8381 ft | 176 kts | 268° |
| 2026-05-03 22:24 | -33.47079 | -70.97301 | 8750 ft | 170 kts | 282° |
| 2026-05-03 22:25 | -33.43505 | -71.00072 | 10252 ft | 162 kts | 340° |
| 2026-05-03 22:25 | -33.42438 | -71.00490 | 10603 ft | 162 kts | 340° |
| 2026-05-03 22:26 | -33.41366 | -71.00910 | 10954 ft | 162 kts | 340° |
| 2026-05-03 22:26 | -33.40302 | -71.01327 | 11309 ft | 160 kts | 339° |
| 2026-05-03 22:26 | -33.39255 | -71.01738 | 11672 ft | 158 kts | 339° |
| 2026-05-03 22:26 | -33.38216 | -71.02146 | 12035 ft | 159 kts | 339° |
| 2026-05-03 22:27 | -33.37167 | -71.02557 | 12408 ft | 159 kts | 339° |
| 2026-05-03 22:27 | -33.36117 | -71.02968 | 12775 ft | 158 kts | 339° |
| 2026-05-03 22:27 | -33.35080 | -71.03374 | 13145 ft | 155 kts | 338° |
| 2026-05-03 22:27 | -33.34070 | -71.03769 | 13537 ft | 153 kts | 338° |
| 2026-05-03 22:28 | -33.33054 | -71.04167 | 13920 ft | 155 kts | 338° |
| 2026-05-03 22:28 | -33.32039 | -71.04564 | 14257 ft | 152 kts | 337° |
| 2026-05-03 22:28 | -33.31025 | -71.04961 | 14602 ft | 154 kts | 336° |
| 2026-05-03 22:28 | -33.30000 | -71.05362 | 14960 ft | 156 kts | 336° |
| 2026-05-03 22:29 | -33.28978 | -71.05762 | 15315 ft | 157 kts | 335° |
| 2026-05-03 22:29 | -33.27939 | -71.06168 | 15668 ft | 157 kts | 335° |
| 2026-05-03 22:29 | -33.26904 | -71.06571 | 16024 ft | 155 kts | 334° |
| 2026-05-03 22:29 | -33.25886 | -71.06969 | 16396 ft | 154 kts | 334° |
| 2026-05-03 22:30 | -33.24863 | -71.07370 | 16767 ft | 155 kts | 332° |
| 2026-05-03 22:30 | -33.23841 | -71.07769 | 17134 ft | 154 kts | 333° |
| 2026-05-03 22:30 | -33.22814 | -71.08170 | 17525 ft | 156 kts | 332° |
| 2026-05-03 22:30 | -33.21779 | -71.08574 | 17900 ft | 157 kts | 332° |
| 2026-05-03 22:31 | -33.20717 | -71.08990 | 18155 ft | 163 kts | 332° |
| 2026-05-03 22:31 | -33.19624 | -71.09415 | 18430 ft | 167 kts | 332° |
| 2026-05-03 22:31 | -33.18505 | -71.09851 | 18660 ft | 172 kts | 332° |
| 2026-05-03 22:31 | -33.17343 | -71.10304 | 18876 ft | 179 kts | 332° |
| 2026-05-03 22:32 | -33.16159 | -71.10764 | 19072 ft | 183 kts | 332° |
| 2026-05-03 22:32 | -33.14929 | -71.11242 | 19285 ft | 189 kts | 332° |
| 2026-05-03 22:32 | -33.13669 | -71.11733 | 19506 ft | 193 kts | 333° |
| 2026-05-03 22:32 | -33.12372 | -71.12238 | 19710 ft | 198 kts | 332° |
| 2026-05-03 22:33 | -33.11058 | -71.12747 | 19925 ft | 199 kts | 332° |
| 2026-05-03 22:33 | -33.09737 | -71.13261 | 20131 ft | 200 kts | 333° |
| 2026-05-03 22:33 | -33.08410 | -71.13777 | 20345 ft | 199 kts | 333° |
| 2026-05-03 22:33 | -33.07106 | -71.14283 | 20562 ft | 196 kts | 332° |
| 2026-05-03 22:34 | -33.05819 | -71.14784 | 20786 ft | 195 kts | 332° |
| 2026-05-03 22:34 | -33.04522 | -71.15292 | 21002 ft | 197 kts | 332° |
| 2026-05-03 22:34 | -33.03221 | -71.15798 | 21227 ft | 197 kts | 332° |
| 2026-05-03 22:34 | -33.01909 | -71.16307 | 21452 ft | 198 kts | 332° |